Time;durP1;ratioP1;P1;durP2;ratioP2;P2;SDS_P1;SDS_P2;PMS_P1;PMS_P2;Temp;Humidity;BMP_temperature;BMP_pressure;BME280_temperature;BME280_humidity;BME280_pressure;Samples;Min_cycle;Max_cycle;Signal;HPM_P1;HPM_P2
2023/09/23 00:01:52;;;;;;;0.10;0.10;;;;;;;13.62;92.08;94937.88;4363808;32;20197;-64
2023/09/23 00:04:18;;;;;;;0.30;0.30;;;;;;;13.45;92.34;94937.97;4377263;32;20184;-64
2023/09/23 00:06:44;;;;;;;0.63;0.50;;;;;;;13.50;91.92;94935.13;4355531;32;20207;-64
2023/09/23 00:09:10;;;;;;;0.00;0.00;;;;;;;13.45;91.98;94940.63;4375059;32;20185;-63
2023/09/23 00:11:37;;;;;;;0.20;0.20;;;;;;;13.54;91.94;94936.03;4363962;32;20266;-63
2023/09/23 00:14:03;;;;;;;0.00;0.00;;;;;;;13.68;91.75;94947.28;4374159;32;20225;-64
2023/09/23 00:16:28;;;;;;;0.20;0.20;;;;;;;13.75;91.57;94947.53;4375866;32;20235;-63
2023/09/23 00:18:54;;;;;;;0.10;0.10;;;;;;;13.74;92.34;94956.63;4373910;32;20176;-64
2023/09/23 00:21:19;;;;;;;0.00;0.00;;;;;;;13.69;91.62;94959.50;4376575;32;20207;-64
2023/09/23 00:23:46;;;;;;;0.40;0.40;;;;;;;13.74;91.60;94959.28;4376853;32;20230;-64
2023/09/23 00:26:17;;;;;;;0.20;0.20;;;;;;;13.79;91.14;94955.66;4378252;32;20208;-64
2023/09/23 00:28:43;;;;;;;0.20;0.20;;;;;;;13.82;91.46;94956.91;4377241;32;20188;-63
2023/09/23 00:31:14;;;;;;;0.10;0.10;;;;;;;13.81;91.70;94956.13;4376110;32;20242;-64
2023/09/23 00:33:40;;;;;;;0.20;0.20;;;;;;;13.93;91.30;94955.41;4377403;32;20188;-63
2023/09/23 00:36:07;;;;;;;0.00;0.00;;;;;;;13.53;91.91;94961.13;4368524;32;20254;-64
2023/09/23 00:38:33;;;;;;;0.00;0.00;;;;;;;13.65;92.31;94950.56;4364147;32;20250;-63
2023/09/23 00:40:58;;;;;;;0.30;0.30;;;;;;;13.63;92.66;94962.66;4376517;32;20193;-63
2023/09/23 00:43:24;;;;;;;0.13;0.13;;;;;;;13.61;92.34;94959.53;4365649;32;20209;-64
2023/09/23 00:45:52;;;;;;;0.00;0.00;;;;;;;13.70;92.24;94960.28;4376982;32;20203;-64
2023/09/23 00:48:20;;;;;;;0.03;0.03;;;;;;;13.75;92.07;94958.19;4363919;32;20199;-64
2023/09/23 00:50:47;;;;;;;0.20;0.20;;;;;;;13.72;92.35;94955.37;4373416;32;20189;-64
2023/09/23 00:53:13;;;;;;;0.13;0.13;;;;;;;13.87;92.40;94964.72;4359842;32;20209;-64
2023/09/23 00:55:51;;;;;;;0.00;0.00;;;;;;;13.85;91.99;94978.37;4378173;32;20199;-63
2023/09/23 00:58:20;;;;;;;0.50;0.17;;;;;;;13.87;92.14;94970.06;4363538;32;20188;-62
2023/09/23 01:00:46;;;;;;;0.07;0.07;;;;;;;13.75;92.77;94968.84;4364230;32;20267;-62
2023/09/23 01:03:12;;;;;;;0.03;0.03;;;;;;;13.68;92.65;94976.59;4376091;32;20176;-62
2023/09/23 01:05:39;;;;;;;0.03;0.03;;;;;;;13.62;93.00;94963.75;4377178;32;20212;-63
2023/09/23 01:08:42;;;;;;;5.20;0.40;;;;;;;13.32;94.29;94953.03;4376288;32;20197;-63
2023/09/23 01:10:57;;;;;;;0.63;0.30;;;;;;;13.39;94.51;94971.22;4371771;32;20201;-63
2023/09/23 01:13:29;;;;;;;0.20;0.20;;;;;;;13.62;93.71;94971.75;4370616;32;20301;-63
2023/09/23 01:15:55;;;;;;;0.13;0.13;;;;;;;13.67;93.92;94983.03;4367122;32;20249;-63
2023/09/23 01:18:20;;;;;;;0.00;0.00;;;;;;;13.59;94.17;94991.03;4364034;32;20230;-63
2023/09/23 01:20:49;;;;;;;0.00;0.00;;;;;;;13.78;93.29;94999.44;4376869;32;20193;-63
2023/09/23 01:23:15;;;;;;;0.00;0.00;;;;;;;13.76;93.24;95007.75;4375787;32;20333;-63
2023/09/23 01:25:41;;;;;;;0.10;0.10;;;;;;;13.67;93.92;94999.00;4363652;32;20188;-64
2023/09/23 01:28:11;;;;;;;0.13;0.13;;;;;;;13.70;94.13;95017.03;4363687;32;20201;-63
2023/09/23 01:30:36;;;;;;;0.10;0.10;;;;;;;13.70;94.04;95016.25;4377115;32;20211;-63
2023/09/23 01:33:07;;;;;;;0.20;0.20;;;;;;;13.58;94.00;95013.47;4366951;32;20193;-63
2023/09/23 01:35:32;;;;;;;0.10;0.10;;;;;;;13.60;94.36;95029.94;4363825;32;20201;-63
2023/09/23 01:37:59;;;;;;;0.17;0.17;;;;;;;13.65;94.68;95035.09;4376632;32;20212;-62
2023/09/23 01:40:29;;;;;;;0.10;0.10;;;;;;;13.63;94.56;95034.62;4378508;32;20211;-63
2023/09/23 01:42:55;;;;;;;0.10;0.10;;;;;;;13.64;94.96;95041.53;4377467;32;20214;-63
2023/09/23 01:45:22;;;;;;;0.00;0.00;;;;;;;13.84;93.81;95042.69;4377274;32;20204;-62
2023/09/23 01:47:49;;;;;;;0.10;0.10;;;;;;;13.97;93.62;95044.34;4376833;32;20215;-63
2023/09/23 01:50:18;;;;;;;0.00;0.00;;;;;;;13.88;94.12;95051.62;4375399;32;20185;-62
2023/09/23 01:52:45;;;;;;;0.17;0.17;;;;;;;13.92;94.08;95052.56;4362875;32;20216;-62
2023/09/23 01:55:12;;;;;;;0.20;0.20;;;;;;;13.89;94.28;95053.97;4376872;32;20201;-62
2023/09/23 01:57:38;;;;;;;0.10;0.10;;;;;;;13.89;94.39;95048.66;4376823;32;20245;-63
2023/09/23 02:00:07;;;;;;;0.30;0.30;;;;;;;13.86;94.80;95053.81;4376730;32;20227;-63
2023/09/23 02:02:33;;;;;;;0.00;0.00;;;;;;;13.74;94.78;95052.59;4362786;32;20210;-62
2023/09/23 02:04:59;;;;;;;0.50;0.20;;;;;;;13.72;95.05;95054.81;4376901;32;20185;-62
2023/09/23 02:07:26;;;;;;;0.00;0.00;;;;;;;13.54;95.30;95055.97;4364195;32;20196;-63
2023/09/23 02:09:52;;;;;;;0.50;0.30;;;;;;;13.44;96.41;95058.19;4377165;32;20196;-63
2023/09/23 02:12:17;;;;;;;0.00;0.00;;;;;;;13.58;96.06;95067.56;4376485;32;20218;-63
2023/09/23 02:14:42;;;;;;;0.10;0.10;;;;;;;13.64;96.13;95068.19;4376385;32;20236;-62
2023/09/23 02:17:08;;;;;;;0.10;0.10;;;;;;;13.58;96.00;95080.09;4371323;32;20201;-63
2023/09/23 02:19:34;;;;;;;0.00;0.00;;;;;;;13.65;95.87;95073.19;4368820;32;20184;-62
2023/09/23 02:22:05;;;;;;;0.23;0.23;;;;;;;13.62;95.27;95067.72;4362559;32;20229;-62
2023/09/23 02:24:36;;;;;;;0.10;0.10;;;;;;;13.37;95.49;95072.78;4375471;32;20232;-62
2023/09/23 02:27:03;;;;;;;0.33;0.33;;;;;;;13.32;95.85;95064.94;4353534;32;20208;-62
2023/09/23 02:29:32;;;;;;;0.00;0.00;;;;;;;13.28;96.80;95081.91;4362481;32;20188;-62
2023/09/23 02:31:58;;;;;;;0.20;0.20;;;;;;;13.24;96.35;95083.63;4362495;32;20211;-62
2023/09/23 02:34:23;;;;;;;0.10;0.10;;;;;;;13.09;97.50;95082.97;4378170;32;20189;-62
2023/09/23 02:36:52;;;;;;;0.10;0.10;;;;;;;13.28;96.63;95077.34;4376038;32;20217;-63
2023/09/23 02:39:21;;;;;;;0.00;0.00;;;;;;;13.25;96.60;95077.19;4362563;32;20180;-63
2023/09/23 02:41:48;;;;;;;0.00;0.00;;;;;;;13.18;96.00;95072.34;4376254;32;20193;-63
2023/09/23 02:44:18;;;;;;;0.00;0.00;;;;;;;13.17;96.77;95068.13;4362095;32;20286;-62
2023/09/23 02:46:44;;;;;;;0.00;0.00;;;;;;;13.11;97.38;95066.66;4376400;32;20193;-62
2023/09/23 02:49:09;;;;;;;0.10;0.10;;;;;;;13.05;97.14;95068.72;4361403;32;20193;-63
2023/09/23 02:51:36;;;;;;;0.00;0.00;;;;;;;13.19;97.18;95062.47;4373688;32;20302;-62
2023/09/23 02:54:04;;;;;;;0.10;0.10;;;;;;;13.24;97.36;95057.78;4374840;32;20213;-62
2023/09/23 02:56:30;;;;;;;0.20;0.20;;;;;;;13.30;97.12;95063.72;4374191;32;20185;-63
2023/09/23 02:58:56;;;;;;;0.10;0.10;;;;;;;13.28;96.36;95058.72;4375140;32;20251;-62
2023/09/23 03:01:22;;;;;;;0.43;0.43;;;;;;;13.31;96.47;95060.72;4377803;32;20233;-62
2023/09/23 03:03:47;;;;;;;0.10;0.10;;;;;;;13.15;96.71;95069.50;4361765;32;20260;-63
2023/09/23 03:06:15;;;;;;;0.07;0.07;;;;;;;13.09;97.15;95074.97;4361802;32;20238;-64
2023/09/23 03:08:43;;;;;;;0.47;0.47;;;;;;;12.90;97.74;95076.41;4364342;32;20204;-63
2023/09/23 03:11:11;;;;;;;0.67;0.17;;;;;;;13.13;97.37;95077.78;4369119;32;20184;-63
2023/09/23 03:13:37;;;;;;;0.10;0.10;;;;;;;13.11;97.36;95077.31;4370363;32;20242;-63
2023/09/23 03:16:08;;;;;;;0.23;0.23;;;;;;;13.00;97.48;95076.09;4374589;32;20192;-63
2023/09/23 03:18:37;;;;;;;0.20;0.20;;;;;;;13.08;97.07;95083.31;4374880;32;20188;-63
2023/09/23 03:21:09;;;;;;;0.20;0.20;;;;;;;13.06;97.71;95086.28;4375834;32;20248;-63
2023/09/23 03:23:39;;;;;;;0.00;0.00;;;;;;;12.94;97.50;95088.78;4375669;32;20244;-63
2023/09/23 03:26:04;;;;;;;0.00;0.00;;;;;;;13.08;97.38;95084.09;4361893;32;20211;-63
2023/09/23 03:28:30;;;;;;;0.10;0.10;;;;;;;12.93;98.09;95086.41;4375727;32;20244;-63
2023/09/23 03:31:01;;;;;;;0.00;0.00;;;;;;;12.98;98.16;95088.94;4362093;32;20283;-63
2023/09/23 03:33:29;;;;;;;0.13;0.13;;;;;;;13.00;98.52;95086.75;4376204;32;20236;-62
2023/09/23 03:35:55;;;;;;;0.03;0.03;;;;;;;13.17;97.30;95086.75;4364045;32;20189;-63
2023/09/23 03:38:20;;;;;;;0.53;0.53;;;;;;;13.26;96.85;95082.22;4375942;32;20212;-63
2023/09/23 03:40:53;;;;;;;0.00;0.00;;;;;;;13.21;96.68;95079.72;4360973;32;20214;-63
2023/09/23 03:43:19;;;;;;;4.80;0.40;;;;;;;13.29;96.32;95088.81;4351646;32;20203;-63
2023/09/23 03:45:44;;;;;;;0.07;0.07;;;;;;;13.39;96.21;95086.56;4361100;32;20189;-63
2023/09/23 03:48:12;;;;;;;0.33;0.33;;;;;;;13.28;96.35;95098.66;4363202;32;20227;-63
2023/09/23 03:50:38;;;;;;;0.20;0.20;;;;;;;13.35;96.27;95101.63;4361597;32;20192;-63
2023/09/23 03:53:03;;;;;;;0.17;0.10;;;;;;;13.35;96.10;95112.28;4366909;32;20196;-63
2023/09/23 03:55:29;;;;;;;0.13;0.13;;;;;;;13.24;96.77;95116.37;4373879;32;20254;-63
2023/09/23 03:57:54;;;;;;;0.13;0.13;;;;;;;13.27;96.69;95117.63;4375195;32;20185;-63
2023/09/23 04:00:26;;;;;;;0.53;0.40;;;;;;;13.13;96.70;95128.41;4361888;32;20260;-63
2023/09/23 04:02:51;;;;;;;0.23;0.23;;;;;;;13.22;96.68;95131.88;4374740;32;20211;-64
2023/09/23 04:05:19;;;;;;;0.20;0.20;;;;;;;13.26;96.16;95140.03;4375427;32;20189;-63
2023/09/23 04:07:49;;;;;;;0.17;0.17;;;;;;;13.14;96.83;95137.97;4367575;32;20180;-63
2023/09/23 04:10:26;;;;;;;0.10;0.10;;;;;;;13.09;96.95;95140.81;4377589;32;20265;-63
2023/09/23 04:12:54;;;;;;;0.30;0.30;;;;;;;13.06;96.87;95144.09;4365059;32;20192;-63
2023/09/23 04:15:19;;;;;;;0.10;0.00;;;;;;;13.04;97.34;95144.41;4378040;32;20181;-63
2023/09/23 04:17:45;;;;;;;0.30;0.13;;;;;;;13.15;97.09;95152.06;4364723;32;20348;-64
2023/09/23 04:20:11;;;;;;;0.20;0.20;;;;;;;13.18;97.04;95151.47;4364377;32;20185;-63
2023/09/23 04:22:41;;;;;;;0.10;0.10;;;;;;;13.15;96.92;95157.38;4362819;32;20227;-63
2023/09/23 04:25:08;;;;;;;0.00;0.00;;;;;;;13.23;96.72;95159.31;4370928;32;20296;-63
2023/09/23 04:27:36;;;;;;;0.10;0.10;;;;;;;13.11;96.57;95156.44;4363626;32;20199;-64
2023/09/23 04:30:04;;;;;;;0.10;0.10;;;;;;;13.21;96.54;95161.50;4363849;32;20194;-64
2023/09/23 04:32:29;;;;;;;0.10;0.10;;;;;;;13.00;96.91;95177.28;4378145;32;20305;-63
2023/09/23 04:34:56;;;;;;;0.10;0.10;;;;;;;13.06;96.70;95182.16;4365543;32;20208;-63
2023/09/23 04:37:21;;;;;;;0.10;0.10;;;;;;;13.22;96.50;95181.72;4363781;32;20211;-63
2023/09/23 04:39:47;;;;;;;0.33;0.30;;;;;;;13.12;96.63;95181.97;4368423;32;20188;-63
2023/09/23 04:42:12;;;;;;;0.00;0.00;;;;;;;13.16;97.03;95189.06;4377080;32;20234;-62
2023/09/23 04:44:37;;;;;;;0.10;0.10;;;;;;;13.32;96.17;95197.38;4375498;32;20215;-62
2023/09/23 04:47:03;;;;;;;0.10;0.10;;;;;;;13.30;95.52;95194.28;4377116;32;20230;-62
2023/09/23 04:49:28;;;;;;;0.50;0.50;;;;;;;13.18;96.16;95205.53;4376729;32;20185;-62
2023/09/23 04:51:53;;;;;;;0.47;0.47;;;;;;;13.26;96.37;95207.44;4379067;32;20185;-62
2023/09/23 04:54:19;;;;;;;0.83;0.30;;;;;;;13.08;96.72;95206.59;4376230;32;20188;-63
2023/09/23 04:56:44;;;;;;;0.40;0.40;;;;;;;13.30;96.03;95191.59;4376976;32;20246;-62
2023/09/23 04:59:10;;;;;;;0.33;0.33;;;;;;;13.33;96.02;95201.59;4375927;32;20207;-62
2023/09/23 05:01:36;;;;;;;0.13;0.10;;;;;;;13.33;95.26;95209.59;4377691;32;20248;-62
2023/09/23 05:04:02;;;;;;;0.30;0.30;;;;;;;13.30;95.30;95212.91;4377284;32;20188;-63
2023/09/23 05:06:27;;;;;;;0.87;0.83;;;;;;;13.42;94.98;95210.41;4363224;32;20193;-63
2023/09/23 05:08:55;;;;;;;0.30;0.17;;;;;;;13.23;94.85;95228.56;4378471;32;20214;-63
2023/09/23 05:11:20;;;;;;;0.17;0.17;;;;;;;13.38;95.20;95228.91;4361973;32;20227;-63
2023/09/23 05:13:45;;;;;;;0.47;0.47;;;;;;;13.37;94.90;95232.66;4361981;32;20283;-63
2023/09/23 05:16:11;;;;;;;0.17;0.07;;;;;;;13.36;94.93;95232.97;4361951;32;20199;-62
2023/09/23 05:18:36;;;;;;;0.10;0.10;;;;;;;13.48;94.30;95233.16;4375453;32;20243;-62
2023/09/23 05:21:02;;;;;;;0.17;0.17;;;;;;;13.44;94.31;95236.75;4375271;32;20192;-63
2023/09/23 05:23:28;;;;;;;0.27;0.27;;;;;;;13.51;93.99;95243.16;4374743;32;20235;-64
2023/09/23 05:25:57;;;;;;;0.30;0.30;;;;;;;13.44;93.97;95245.53;4363201;32;20207;-63
2023/09/23 05:28:23;;;;;;;0.10;0.10;;;;;;;13.38;94.37;95246.75;4375439;32;20188;-63
2023/09/23 05:30:48;;;;;;;0.40;0.40;;;;;;;13.56;93.79;95247.56;4374682;32;20192;-63
2023/09/23 05:33:14;;;;;;;0.07;0.07;;;;;;;13.40;93.55;95255.22;4375236;32;20236;-63
2023/09/23 05:35:39;;;;;;;0.30;0.30;;;;;;;13.49;93.72;95253.37;4372904;32;20189;-62
2023/09/23 05:38:05;;;;;;;0.40;0.40;;;;;;;13.42;94.03;95258.38;4375213;32;20238;-63
2023/09/23 05:40:30;;;;;;;0.40;0.40;;;;;;;13.27;94.33;95253.50;4371597;32;20188;-62
2023/09/23 05:42:56;;;;;;;1.80;0.93;;;;;;;13.22;94.65;95261.63;4361955;32;20248;-62
2023/09/23 05:45:24;;;;;;;0.20;0.20;;;;;;;13.39;94.14;95266.97;4358006;32;20203;-63
2023/09/23 05:47:53;;;;;;;1.03;1.03;;;;;;;13.52;93.39;95262.59;4373598;32;20185;-63
2023/09/23 05:50:19;;;;;;;3.40;0.40;;;;;;;13.39;93.74;95269.66;4374830;32;20192;-62
2023/09/23 05:52:47;;;;;;;0.30;0.30;;;;;;;13.30;93.46;95271.53;4366908;32;20206;-63
2023/09/23 05:55:13;;;;;;;0.80;0.80;;;;;;;13.46;93.52;95274.53;4377001;32;20199;-63
2023/09/23 05:57:40;;;;;;;0.70;0.50;;;;;;;13.55;92.65;95276.09;4363047;32;20212;-63
2023/09/23 06:00:10;;;;;;;0.37;0.37;;;;;;;13.41;91.89;95281.56;4376334;32;20189;-63
2023/09/23 06:02:37;;;;;;;0.50;0.50;;;;;;;13.45;92.56;95287.06;4376716;32;20181;-63
2023/09/23 06:05:03;;;;;;;0.53;0.33;;;;;;;13.27;93.37;95298.78;4362641;32;20243;-63
2023/09/23 06:07:31;;;;;;;0.17;0.17;;;;;;;13.43;92.68;95297.25;4373579;32;20224;-63
2023/09/23 06:09:58;;;;;;;0.40;0.40;;;;;;;13.40;92.62;95303.19;4376206;32;20248;-62
2023/09/23 06:12:26;;;;;;;0.53;0.53;;;;;;;13.33;93.02;95313.53;4378249;32;20184;-63
2023/09/23 06:14:53;;;;;;;1.07;0.53;;;;;;;13.45;92.92;95313.72;4375790;32;20208;-63
2023/09/23 06:17:18;;;;;;;0.20;0.20;;;;;;;13.60;91.97;95318.59;4362723;32;20180;-63
2023/09/23 06:19:43;;;;;;;0.67;0.67;;;;;;;13.57;92.01;95318.41;4376553;32;20208;-63
2023/09/23 06:22:09;;;;;;;0.50;0.50;;;;;;;13.51;92.66;95323.09;4374916;32;20230;-63
2023/09/23 06:24:34;;;;;;;0.33;0.33;;;;;;;13.48;92.64;95326.41;4376692;32;20185;-63
2023/09/23 06:27:00;;;;;;;0.80;0.67;;;;;;;13.51;92.55;95325.78;4376396;32;20188;-63
2023/09/23 06:29:27;;;;;;;0.57;0.57;;;;;;;13.56;92.72;95327.50;4364262;32;20229;-63
2023/09/23 06:31:54;;;;;;;0.60;0.60;;;;;;;13.54;92.59;95337.69;4369670;32;20196;-63
2023/09/23 06:34:19;;;;;;;0.30;0.30;;;;;;;13.62;92.84;95337.72;4375017;32;20199;-63
2023/09/23 06:36:44;;;;;;;0.70;0.70;;;;;;;13.61;93.49;95338.03;4376133;32;20193;-63
2023/09/23 06:39:09;;;;;;;0.20;0.20;;;;;;;13.52;93.83;95338.00;4369471;32;20192;-64
2023/09/23 06:41:35;;;;;;;0.33;0.33;;;;;;;13.43;93.15;95334.56;4362736;32;20197;-63
2023/09/23 06:44:00;;;;;;;0.17;0.17;;;;;;;13.55;93.60;95340.06;4362098;32;20266;-62
2023/09/23 06:46:26;;;;;;;0.20;0.20;;;;;;;13.58;92.81;95341.31;4376018;32;20250;-62
2023/09/23 06:48:51;;;;;;;0.33;0.33;;;;;;;13.61;92.75;95346.81;4377915;32;20196;-63
2023/09/23 06:51:16;;;;;;;0.30;0.30;;;;;;;13.60;92.93;95355.12;4362371;32;20201;-63
2023/09/23 06:53:42;;;;;;;0.53;0.53;;;;;;;13.58;92.82;95363.44;4381323;32;20204;-63
2023/09/23 06:56:08;;;;;;;0.20;0.20;;;;;;;13.63;91.76;95359.84;4375309;32;20215;-63
2023/09/23 06:58:33;;;;;;;0.20;0.20;;;;;;;13.83;91.57;95374.44;4375486;32;20184;-63
2023/09/23 07:00:58;;;;;;;0.63;0.63;;;;;;;13.72;91.19;95374.72;4361314;32;20242;-63
2023/09/23 07:03:23;;;;;;;0.33;0.33;;;;;;;13.82;91.75;95370.22;4377186;32;20209;-63
2023/09/23 07:05:49;;;;;;;0.10;0.10;;;;;;;13.70;91.27;95381.50;4374683;32;20192;-63
2023/09/23 07:08:14;;;;;;;0.30;0.30;;;;;;;13.75;90.46;95389.31;4376939;32;20197;-63
2023/09/23 07:10:40;;;;;;;0.43;0.43;;;;;;;13.73;88.98;95386.97;4374688;32;20264;-63
2023/09/23 07:13:06;;;;;;;0.50;0.50;;;;;;;13.80;88.86;95383.06;4375084;32;20245;-63
2023/09/23 07:15:38;;;;;;;0.30;0.30;;;;;;;13.93;88.52;95384.81;4375539;32;20234;-63
2023/09/23 07:18:07;;;;;;;0.37;0.37;;;;;;;13.89;89.74;95390.00;4375931;32;20243;-63
2023/09/23 07:20:34;;;;;;;0.30;0.30;;;;;;;13.91;89.04;95401.16;4375555;32;20234;-63
2023/09/23 07:23:00;;;;;;;0.20;0.20;;;;;;;13.82;88.29;95403.00;4367820;32;20278;-63
2023/09/23 07:25:26;;;;;;;0.27;0.27;;;;;;;13.65;88.34;95417.09;4376529;32;20240;-63
2023/09/23 07:27:53;;;;;;;2.10;0.63;;;;;;;13.62;88.96;95412.37;4376132;32;20230;-63
2023/09/23 07:30:18;;;;;;;0.20;0.20;;;;;;;13.73;87.46;95410.97;4374385;32;20189;-63
2023/09/23 07:32:43;;;;;;;0.27;0.27;;;;;;;13.68;86.95;95421.00;4375296;32;20201;-63
2023/09/23 07:35:09;;;;;;;0.40;0.40;;;;;;;13.86;87.51;95417.28;4375368;32;20188;-63
2023/09/23 07:37:34;;;;;;;1.07;0.33;;;;;;;13.91;86.44;95424.34;4376048;32;20204;-63
2023/09/23 07:40:00;;;;;;;0.87;0.60;;;;;;;13.85;86.71;95430.94;4375272;32;20189;-63
2023/09/23 07:42:25;;;;;;;0.20;0.20;;;;;;;13.77;88.49;95441.25;4377429;32;20177;-63
2023/09/23 07:44:51;;;;;;;0.27;0.27;;;;;;;13.88;88.56;95443.66;4367005;32;20218;-63
2023/09/23 07:47:16;;;;;;;0.10;0.10;;;;;;;13.77;89.62;95449.25;4378343;32;20199;-63
2023/09/23 07:49:41;;;;;;;0.40;0.40;;;;;;;13.71;90.45;95458.50;4378436;32;20192;-63
2023/09/23 07:52:06;;;;;;;0.33;0.33;;;;;;;13.91;89.60;95461.69;4378551;32;20227;-63
2023/09/23 07:54:32;;;;;;;0.20;0.20;;;;;;;13.81;89.40;95468.09;4378164;32;20184;-63
2023/09/23 07:56:58;;;;;;;0.30;0.30;;;;;;;13.68;88.91;95464.47;4378491;32;20184;-63
2023/09/23 07:59:23;;;;;;;0.33;0.33;;;;;;;13.71;88.10;95466.50;4380846;32;20189;-63
2023/09/23 08:01:48;;;;;;;0.20;0.20;;;;;;;13.62;88.49;95471.00;4378475;32;20203;-63
2023/09/23 08:04:15;;;;;;;0.30;0.30;;;;;;;13.54;89.11;95482.41;4376657;32;20196;-63
2023/09/23 08:06:41;;;;;;;1.70;0.50;;;;;;;13.70;89.00;95478.28;4376672;32;20250;-63
2023/09/23 08:09:06;;;;;;;1.60;0.33;;;;;;;13.59;88.67;95492.16;4364233;32;20223;-63
2023/09/23 08:11:32;;;;;;;0.30;0.30;;;;;;;13.60;88.51;95489.19;4377000;32;20215;-63
2023/09/23 08:13:58;;;;;;;0.30;0.30;;;;;;;13.57;88.49;95486.34;4364384;32;20227;-63
2023/09/23 08:16:23;;;;;;;0.40;0.40;;;;;;;13.71;88.12;95493.16;4379843;32;20177;-64
2023/09/23 08:18:49;;;;;;;0.10;0.10;;;;;;;13.49;87.88;95498.56;4378042;32;20248;-63
2023/09/23 08:21:15;;;;;;;0.17;0.17;;;;;;;13.67;87.80;95499.44;4364684;32;20207;-63
2023/09/23 08:23:41;;;;;;;1.13;0.80;;;;;;;13.70;88.33;95504.16;4377987;32;20207;-63
2023/09/23 08:26:06;;;;;;;2.43;0.73;;;;;;;13.42;87.69;95514.19;4378199;32;20188;-63
2023/09/23 08:28:31;;;;;;;0.37;0.27;;;;;;;13.54;87.76;95517.06;4376634;32;20235;-63
2023/09/23 08:30:57;;;;;;;0.13;0.13;;;;;;;13.77;88.06;95517.78;4361440;32;20256;-63
2023/09/23 08:33:22;;;;;;;0.20;0.20;;;;;;;13.93;86.85;95524.28;4366356;32;20196;-63
2023/09/23 08:35:48;;;;;;;0.20;0.20;;;;;;;13.93;86.01;95518.16;4377862;32;20188;-63
2023/09/23 08:38:15;;;;;;;2.50;0.23;;;;;;;13.90;86.45;95522.25;4368617;32;20201;-63
2023/09/23 08:40:43;;;;;;;0.40;0.40;;;;;;;13.79;86.19;95536.94;4367937;32;20248;-63
2023/09/23 08:43:08;;;;;;;0.70;0.70;;;;;;;13.88;86.00;95537.78;4364211;32;20215;-63
2023/09/23 08:45:39;;;;;;;3.10;0.43;;;;;;;13.85;86.15;95526.94;4376080;32;20201;-63
2023/09/23 08:48:06;;;;;;;0.60;0.10;;;;;;;13.66;86.14;95533.28;4365258;32;20219;-63
2023/09/23 08:50:32;;;;;;;0.10;0.10;;;;;;;13.53;87.30;95533.38;4368556;32;20233;-63
2023/09/23 08:52:58;;;;;;;0.30;0.23;;;;;;;13.65;87.13;95530.94;4354272;32;20266;-63
2023/09/23 08:55:25;;;;;;;0.30;0.30;;;;;;;13.70;86.68;95542.25;4351161;32;20185;-63
2023/09/23 08:57:51;;;;;;;0.57;0.43;;;;;;;14.00;85.74;95531.84;4362283;32;20193;-63
2023/09/23 09:00:18;;;;;;;0.50;0.50;;;;;;;13.94;85.92;95533.06;4362155;32;20334;-63
2023/09/23 09:02:43;;;;;;;0.13;0.13;;;;;;;14.04;85.83;95540.81;4348798;32;20235;-63
2023/09/23 09:05:09;;;;;;;0.50;0.40;;;;;;;13.89;86.04;95539.34;4362991;32;20189;-63
2023/09/23 09:07:36;;;;;;;0.20;0.20;;;;;;;14.01;85.26;95536.09;4362695;32;20194;-63
2023/09/23 09:10:02;;;;;;;0.73;0.47;;;;;;;13.95;84.45;95542.66;4361256;32;20245;-63
2023/09/23 09:12:28;;;;;;;0.50;0.50;;;;;;;14.03;84.93;95550.69;4362222;32;20188;-63
2023/09/23 09:14:55;;;;;;;0.17;0.17;;;;;;;14.07;84.11;95542.84;4362817;32;20215;-63
2023/09/23 09:17:20;;;;;;;0.20;0.20;;;;;;;14.12;83.35;95545.38;4361543;32;20199;-63
2023/09/23 09:19:46;;;;;;;0.10;0.10;;;;;;;14.09;81.86;95546.00;4361052;32;20268;-63
2023/09/23 09:22:11;;;;;;;0.43;0.17;;;;;;;14.10;81.42;95544.91;4361452;32;20211;-63
2023/09/23 09:24:37;;;;;;;0.00;0.00;;;;;;;14.23;81.08;95556.53;4362090;32;20233;-64
2023/09/23 09:27:02;;;;;;;0.30;0.30;;;;;;;14.34;80.65;95558.59;4362539;32;20208;-63
2023/09/23 09:29:29;;;;;;;0.10;0.10;;;;;;;14.52;79.54;95556.81;4348085;32;20189;-63
2023/09/23 09:32:00;;;;;;;0.07;0.07;;;;;;;14.26;80.13;95563.94;4349960;32;20193;-64
2023/09/23 09:34:31;;;;;;;0.27;0.27;;;;;;;14.44;79.91;95555.69;4362549;32;20223;-64
2023/09/23 09:36:57;;;;;;;0.80;0.47;;;;;;;14.29;79.77;95566.78;4346402;32;20197;-63
2023/09/23 09:39:28;;;;;;;0.20;0.20;;;;;;;14.43;79.58;95564.78;4366420;32;20311;-64
2023/09/23 09:41:54;;;;;;;0.23;0.23;;;;;;;14.51;79.53;95565.13;4362674;32;20252;-64
2023/09/23 09:44:22;;;;;;;0.30;0.30;;;;;;;14.48;79.59;95565.75;4360316;32;20189;-63
2023/09/23 09:46:51;;;;;;;0.50;0.50;;;;;;;14.55;79.07;95566.09;4361406;32;20216;-63
2023/09/23 09:49:17;;;;;;;11.30;0.70;;;;;;;14.75;78.65;95570.81;4361658;32;20267;-62
2023/09/23 09:51:46;;;;;;;0.20;0.20;;;;;;;14.77;77.26;95558.69;4360246;32;20201;-62
2023/09/23 09:54:12;;;;;;;0.47;0.47;;;;;;;14.84;75.94;95558.22;4370888;32;20193;-62
2023/09/23 09:56:40;;;;;;;0.83;0.57;;;;;;;14.84;74.95;95562.78;4373247;32;20240;-62
2023/09/23 09:59:06;;;;;;;0.40;0.40;;;;;;;15.01;75.87;95563.56;4363269;32;20188;-62
2023/09/23 10:01:33;;;;;;;0.97;0.70;;;;;;;14.77;76.25;95564.03;4376145;32;20206;-62
2023/09/23 10:03:59;;;;;;;0.10;0.10;;;;;;;14.73;76.23;95565.00;4370901;32;20242;-62
2023/09/23 10:06:26;;;;;;;2.77;0.83;;;;;;;14.84;75.03;95562.78;4364264;32;20212;-62
2023/09/23 10:08:53;;;;;;;0.00;0.00;;;;;;;14.78;76.04;95554.12;4376936;32;20200;-62
2023/09/23 10:11:31;;;;;;;0.47;0.20;;;;;;;14.96;76.67;95554.94;4362965;32;20241;-62
2023/09/23 10:13:57;;;;;;;0.00;0.00;;;;;;;14.88;75.58;95553.06;4358821;32;20237;-62
2023/09/23 10:16:27;;;;;;;0.20;0.20;;;;;;;14.99;74.37;95554.28;4371591;32;20184;-62
2023/09/23 10:18:57;;;;;;;0.63;0.63;;;;;;;14.97;74.88;95549.25;4376848;32;20193;-62
2023/09/23 10:21:24;;;;;;;0.10;0.10;;;;;;;14.97;73.89;95557.28;4362857;32;20192;-62
2023/09/23 10:23:55;;;;;;;0.00;0.00;;;;;;;15.14;74.99;95556.50;4375525;32;20211;-62
2023/09/23 10:26:21;;;;;;;0.60;0.60;;;;;;;15.21;73.37;95550.66;4376493;32;20192;-62
2023/09/23 10:28:59;;;;;;;0.20;0.20;;;;;;;15.18;74.28;95548.63;4362344;32;20375;-62
2023/09/23 10:31:26;;;;;;;1.17;0.23;;;;;;;14.99;74.35;95548.94;4367312;32;20232;-62
2023/09/23 10:33:53;;;;;;;0.10;0.10;;;;;;;15.21;74.53;95545.31;4368192;32;20200;-62
2023/09/23 10:36:21;;;;;;;0.00;0.00;;;;;;;15.13;75.13;95545.03;4376052;32;20188;-63
2023/09/23 10:38:48;;;;;;;0.10;0.10;;;;;;;15.09;74.79;95543.31;4376111;32;20303;-62
2023/09/23 10:41:13;;;;;;;0.10;0.10;;;;;;;15.13;76.07;95549.59;4362195;32;20190;-62
2023/09/23 10:43:39;;;;;;;0.10;0.10;;;;;;;15.13;73.89;95560.28;4375965;32;20204;-62
2023/09/23 10:46:05;;;;;;;0.00;0.00;;;;;;;15.16;73.38;95548.19;4375589;32;20208;-62
2023/09/23 10:48:31;;;;;;;0.23;0.23;;;;;;;15.29;73.67;95558.69;4372053;32;20256;-62
2023/09/23 10:50:58;;;;;;;0.23;0.23;;;;;;;15.40;71.65;95553.78;4363065;32;20184;-62
2023/09/23 10:53:25;;;;;;;0.00;0.00;;;;;;;15.36;73.13;95564.34;4374059;32;20257;-62
2023/09/23 10:55:50;;;;;;;0.20;0.20;;;;;;;15.42;72.44;95554.25;4374609;32;20188;-62
2023/09/23 10:58:16;;;;;;;0.83;0.60;;;;;;;15.58;72.32;95567.94;4374732;32;20268;-62
2023/09/23 11:00:42;;;;;;;0.43;0.43;;;;;;;15.23;72.04;95559.94;4350710;32;20205;-62
2023/09/23 11:03:19;;;;;;;0.00;0.00;;;;;;;15.40;71.54;95567.16;4361639;32;20232;-62
2023/09/23 11:05:46;;;;;;;1.90;0.40;;;;;;;15.45;70.97;95564.31;4371951;32;20210;-62
2023/09/23 11:08:13;;;;;;;0.40;0.40;;;;;;;15.48;71.54;95561.00;4381785;32;20248;-62
2023/09/23 11:10:40;;;;;;;0.03;0.03;;;;;;;15.39;67.69;95563.69;4374234;32;20188;-62
2023/09/23 11:13:06;;;;;;;0.43;0.43;;;;;;;15.23;66.40;95569.84;4375881;32;20188;-62
2023/09/23 11:15:32;;;;;;;0.00;0.00;;;;;;;15.35;68.18;95567.34;4351367;32;20197;-62
2023/09/23 11:17:58;;;;;;;0.37;0.37;;;;;;;15.20;68.04;95570.47;4356602;32;20274;-62
2023/09/23 11:20:31;;;;;;;0.30;0.30;;;;;;;15.25;69.01;95573.00;4373714;32;20196;-62
2023/09/23 11:22:59;;;;;;;0.03;0.03;;;;;;;15.37;69.77;95565.91;4353540;32;20189;-62
2023/09/23 11:25:24;;;;;;;0.10;0.10;;;;;;;15.37;68.37;95570.47;4366771;32;20223;-62
2023/09/23 11:27:51;;;;;;;0.40;0.40;;;;;;;15.23;68.96;95572.53;4378366;32;20189;-62
2023/09/23 11:30:17;;;;;;;0.03;0.03;;;;;;;15.38;69.65;95569.38;4377741;32;20311;-62
2023/09/23 11:32:42;;;;;;;0.10;0.10;;;;;;;15.36;68.95;95575.03;4378379;32;20206;-62